createdAt,value
2018-07-09T00:00:05.319Z,0
2018-07-09T00:00:31.454Z,0
2018-07-09T00:00:57.668Z,0
2018-07-09T00:01:23.805Z,0
2018-07-09T00:01:49.948Z,0
2018-07-09T00:02:16.119Z,0
2018-07-09T00:02:42.270Z,0
2018-07-09T00:03:08.413Z,0
2018-07-09T00:03:34.544Z,0
2018-07-09T00:04:00.703Z,0
2018-07-09T00:04:26.846Z,0
2018-07-09T00:04:52.992Z,0
2018-07-09T00:05:19.174Z,0
2018-07-09T00:05:45.305Z,0
2018-07-09T00:06:14.526Z,0
2018-07-09T00:06:40.627Z,0
2018-07-09T00:07:06.786Z,0
2018-07-09T00:07:32.952Z,0
2018-07-09T00:07:59.093Z,0
2018-07-09T00:08:25.230Z,0
2018-07-09T00:08:51.367Z,0
2018-07-09T00:09:17.504Z,0
2018-07-09T00:09:43.648Z,0
2018-07-09T00:10:09.786Z,0
2018-07-09T00:10:35.953Z,0
2018-07-09T00:11:02.098Z,0
2018-07-09T00:11:28.261Z,0
2018-07-09T00:11:54.399Z,0
2018-07-09T00:12:20.550Z,0
2018-07-09T00:12:46.710Z,0
2018-07-09T00:13:12.851Z,0
2018-07-09T00:13:39.008Z,0
2018-07-09T00:14:05.172Z,0
2018-07-09T00:14:31.313Z,0
2018-07-09T00:14:57.453Z,0
2018-07-09T00:15:23.584Z,0
2018-07-09T00:15:49.725Z,0
2018-07-09T00:16:15.868Z,0
2018-07-09T00:16:42.005Z,0
2018-07-09T00:17:08.169Z,0
2018-07-09T00:17:34.330Z,0
2018-07-09T00:18:00.469Z,0
2018-07-09T00:18:26.606Z,0
2018-07-09T00:18:52.750Z,0
2018-07-09T00:19:18.913Z,0
2018-07-09T00:19:45.068Z,0
2018-07-09T00:20:11.214Z,0
2018-07-09T00:20:37.341Z,0
2018-07-09T00:21:03.481Z,0
2018-07-09T00:21:29.619Z,0
2018-07-09T00:21:55.782Z,0
2018-07-09T00:22:21.942Z,0
2018-07-09T00:22:48.078Z,0
2018-07-09T00:23:14.213Z,0
2018-07-09T00:23:40.351Z,0
2018-07-09T00:24:06.507Z,0
2018-07-09T00:24:32.647Z,0
2018-07-09T00:24:58.790Z,0
2018-07-09T00:25:24.947Z,0
2018-07-09T00:25:51.110Z,0
2018-07-09T00:26:17.247Z,0
2018-07-09T00:26:43.380Z,0
2018-07-09T00:27:09.521Z,0
2018-07-09T00:27:35.661Z,0
2018-07-09T00:28:01.799Z,0
2018-07-09T00:28:27.944Z,0
2018-07-09T00:28:54.082Z,0
2018-07-09T00:29:20.222Z,0
2018-07-09T00:29:46.370Z,0
2018-07-09T00:30:12.517Z,0
2018-07-09T00:30:38.662Z,0
2018-07-09T00:31:04.794Z,0
2018-07-09T00:31:30.930Z,0
2018-07-09T00:31:57.086Z,0
2018-07-09T00:32:23.296Z,0
2018-07-09T00:32:49.384Z,0
2018-07-09T00:33:15.518Z,0
2018-07-09T00:33:41.649Z,0
2018-07-09T00:34:07.789Z,0
2018-07-09T00:34:33.931Z,0
2018-07-09T00:35:00.072Z,0
2018-07-09T00:35:26.257Z,0
2018-07-09T00:35:52.397Z,0
2018-07-09T00:36:18.541Z,0
2018-07-09T00:36:44.720Z,0
2018-07-09T00:37:10.883Z,0
2018-07-09T00:37:37.023Z,0
2018-07-09T00:38:03.165Z,0
2018-07-09T00:38:29.300Z,0
2018-07-09T00:38:55.437Z,0
2018-07-09T00:39:21.580Z,0
2018-07-09T00:39:47.712Z,0
2018-07-09T00:40:13.856Z,0
2018-07-09T00:40:40.024Z,0
2018-07-09T00:41:06.182Z,0
2018-07-09T00:41:32.316Z,0
2018-07-09T00:41:58.455Z,0
2018-07-09T00:42:24.596Z,0
2018-07-09T00:42:50.735Z,0
2018-07-09T00:43:16.873Z,0
2018-07-09T00:43:43.039Z,0
2018-07-09T00:44:09.176Z,0
2018-07-09T00:44:35.343Z,0
2018-07-09T00:45:01.496Z,0
2018-07-09T00:45:27.654Z,0
2018-07-09T00:45:53.788Z,0
2018-07-09T00:46:19.930Z,0
2018-07-09T00:46:46.093Z,0
2018-07-09T00:47:12.226Z,0
2018-07-09T00:47:38.387Z,0
2018-07-09T00:48:04.529Z,0
2018-07-09T00:48:30.686Z,0
2018-07-09T00:48:56.826Z,0
2018-07-09T00:49:22.966Z,0
2018-07-09T00:49:49.097Z,0
2018-07-09T00:50:15.237Z,0
2018-07-09T00:50:41.380Z,0
2018-07-09T00:51:07.611Z,0
2018-07-09T00:51:33.698Z,0
2018-07-09T00:51:59.839Z,0
2018-07-09T00:52:25.975Z,0
2018-07-09T00:52:52.113Z,0
2018-07-09T00:53:18.247Z,0
2018-07-09T00:53:44.383Z,0
2018-07-09T00:54:10.526Z,0
2018-07-09T00:54:36.676Z,0
2018-07-09T00:55:02.837Z,0
2018-07-09T00:55:28.992Z,0
2018-07-09T00:55:55.128Z,0
2018-07-09T00:56:21.292Z,0
2018-07-09T00:56:47.436Z,0
2018-07-09T00:57:13.600Z,0
2018-07-09T00:57:39.771Z,0
2018-07-09T00:58:05.937Z,0
2018-07-09T00:58:32.071Z,0
2018-07-09T00:58:58.199Z,0
2018-07-09T00:59:24.333Z,0
2018-07-09T00:59:50.529Z,0
2018-07-09T01:00:16.660Z,0
2018-07-09T01:00:42.790Z,0
2018-07-09T01:01:08.926Z,0
2018-07-09T01:01:35.060Z,0
2018-07-09T01:02:01.200Z,0
2018-07-09T01:02:27.337Z,0
2018-07-09T01:02:53.526Z,0
2018-07-09T01:03:19.667Z,0
2018-07-09T01:03:45.801Z,0
2018-07-09T01:04:11.941Z,0
2018-07-09T01:04:38.080Z,0
2018-07-09T01:05:04.213Z,0
2018-07-09T01:05:30.354Z,0
2018-07-09T01:05:56.512Z,0
2018-07-09T01:06:22.652Z,0
2018-07-09T01:06:48.797Z,0
2018-07-09T01:07:14.951Z,0
2018-07-09T01:07:41.092Z,0
2018-07-09T01:08:07.226Z,0
2018-07-09T01:08:33.384Z,0
2018-07-09T01:08:59.549Z,0
2018-07-09T01:09:25.686Z,0
2018-07-09T01:09:51.853Z,0
2018-07-09T01:10:17.993Z,0
2018-07-09T01:10:44.126Z,0
2018-07-09T01:11:10.320Z,0
2018-07-09T01:11:36.427Z,0
2018-07-09T01:12:02.559Z,0
2018-07-09T01:12:28.703Z,0
2018-07-09T01:12:54.838Z,0
2018-07-09T01:13:20.998Z,0
2018-07-09T01:13:47.159Z,0
2018-07-09T01:14:13.300Z,0
2018-07-09T01:14:39.430Z,0
2018-07-09T01:15:05.573Z,0
2018-07-09T01:15:31.707Z,0
2018-07-09T01:15:57.869Z,0
2018-07-09T01:16:24.026Z,0
2018-07-09T01:16:50.167Z,0
2018-07-09T01:17:16.296Z,0
2018-07-09T01:17:42.432Z,0
2018-07-09T01:18:08.568Z,0
2018-07-09T01:18:34.718Z,0
2018-07-09T01:19:00.854Z,0
2018-07-09T01:19:26.990Z,0
2018-07-09T01:19:53.154Z,0
2018-07-09T01:20:19.338Z,0
2018-07-09T01:20:45.475Z,0
2018-07-09T01:21:11.610Z,0
2018-07-09T01:21:37.750Z,0
2018-07-09T01:22:03.885Z,0
2018-07-09T01:22:30.024Z,0
2018-07-09T01:22:56.162Z,0
2018-07-09T01:23:22.324Z,0
2018-07-09T01:23:48.454Z,0
2018-07-09T01:24:14.590Z,0
2018-07-09T01:24:40.730Z,0
2018-07-09T01:25:06.865Z,0
2018-07-09T01:25:33.004Z,0
2018-07-09T01:25:59.167Z,0
2018-07-09T01:26:25.301Z,0
2018-07-09T01:26:51.430Z,0
2018-07-09T01:27:17.591Z,0
2018-07-09T01:27:43.734Z,0
2018-07-09T01:28:09.869Z,0
2018-07-09T01:28:36.011Z,0
2018-07-09T01:29:02.169Z,0
2018-07-09T01:29:28.303Z,0
2018-07-09T01:29:54.442Z,0
2018-07-09T01:30:20.576Z,0
2018-07-09T01:30:46.710Z,0
2018-07-09T01:31:12.855Z,0
2018-07-09T01:31:38.991Z,0
2018-07-09T01:32:05.129Z,0
2018-07-09T01:32:31.267Z,0
2018-07-09T01:32:57.425Z,0
2018-07-09T01:33:23.566Z,0
2018-07-09T01:33:49.701Z,0
2018-07-09T01:34:15.839Z,0
2018-07-09T01:34:41.979Z,0
2018-07-09T01:35:08.120Z,0
2018-07-09T01:35:34.255Z,0
2018-07-09T01:36:00.390Z,0
2018-07-09T01:36:26.527Z,0
2018-07-09T01:36:52.661Z,0
2018-07-09T01:37:18.793Z,0
2018-07-09T01:37:44.928Z,0
2018-07-09T01:38:11.062Z,0
2018-07-09T01:38:37.201Z,0
2018-07-09T01:39:03.360Z,0
2018-07-09T01:39:29.496Z,0
2018-07-09T01:39:55.634Z,0
2018-07-09T01:40:21.772Z,0
2018-07-09T01:40:47.927Z,0
2018-07-09T01:41:14.067Z,0
2018-07-09T01:41:40.225Z,0
2018-07-09T01:42:06.361Z,0
2018-07-09T01:42:32.505Z,0
2018-07-09T01:42:58.642Z,0
2018-07-09T01:43:24.786Z,0
2018-07-09T01:43:50.923Z,0
2018-07-09T01:44:17.068Z,0
2018-07-09T01:44:43.208Z,0
2018-07-09T01:45:09.343Z,0
2018-07-09T01:45:35.476Z,0
2018-07-09T01:46:01.635Z,0
2018-07-09T01:46:27.777Z,0
2018-07-09T01:46:53.941Z,0
2018-07-09T01:47:20.105Z,0
2018-07-09T01:47:46.267Z,0
2018-07-09T01:48:12.408Z,0
2018-07-09T01:48:38.551Z,0
2018-07-09T01:49:04.711Z,0
2018-07-09T01:49:30.852Z,0
2018-07-09T01:49:57.030Z,0
2018-07-09T01:50:23.161Z,0
2018-07-09T01:50:49.302Z,0
2018-07-09T01:51:15.461Z,0
2018-07-09T01:51:41.600Z,0
2018-07-09T01:52:07.764Z,0
2018-07-09T01:52:33.900Z,0
2018-07-09T01:53:00.067Z,0
2018-07-09T01:53:26.203Z,0
2018-07-09T01:53:52.335Z,0
2018-07-09T01:54:18.476Z,0
2018-07-09T01:54:44.643Z,0
2018-07-09T01:55:10.780Z,0
2018-07-09T01:55:36.919Z,0
2018-07-09T01:56:03.059Z,0
2018-07-09T01:56:29.200Z,0
2018-07-09T01:56:55.360Z,0
2018-07-09T01:57:21.494Z,0
2018-07-09T01:57:47.631Z,0
2018-07-09T01:58:13.775Z,0
2018-07-09T01:58:39.937Z,0
2018-07-09T01:59:06.072Z,0
2018-07-09T01:59:32.212Z,0
2018-07-09T01:59:58.372Z,0
2018-07-09T02:00:24.513Z,0
2018-07-09T02:00:50.682Z,0
2018-07-09T02:01:16.860Z,0
2018-07-09T02:01:42.999Z,0
2018-07-09T02:02:09.138Z,0
2018-07-09T02:02:35.296Z,0
2018-07-09T02:03:01.441Z,0
2018-07-09T02:03:27.579Z,0
2018-07-09T02:03:53.716Z,0
2018-07-09T02:04:19.860Z,0
2018-07-09T02:04:46.000Z,0
2018-07-09T02:05:12.160Z,0
2018-07-09T02:05:38.325Z,0
2018-07-09T02:06:04.478Z,0
2018-07-09T02:06:30.611Z,0
2018-07-09T02:06:56.757Z,0
2018-07-09T02:07:22.896Z,0
2018-07-09T02:07:49.029Z,0
2018-07-09T02:08:15.191Z,0
2018-07-09T02:08:41.323Z,0
2018-07-09T02:09:07.462Z,0
2018-07-09T02:09:33.604Z,0
2018-07-09T02:09:59.737Z,0
2018-07-09T02:10:25.881Z,0
2018-07-09T02:10:52.016Z,0
2018-07-09T02:11:18.178Z,0
2018-07-09T02:11:44.340Z,0
2018-07-09T02:12:10.498Z,0
2018-07-09T02:12:36.641Z,0
2018-07-09T02:13:02.804Z,0
2018-07-09T02:13:28.938Z,0
2018-07-09T02:13:55.103Z,0
2018-07-09T02:14:21.237Z,0
2018-07-09T02:14:47.374Z,0
2018-07-09T02:15:13.516Z,0
2018-07-09T02:15:39.654Z,0
2018-07-09T02:16:05.795Z,0
2018-07-09T02:16:31.954Z,0
2018-07-09T02:16:58.102Z,0
2018-07-09T02:17:24.283Z,0
2018-07-09T02:17:50.423Z,0
2018-07-09T02:18:16.555Z,0
2018-07-09T02:18:42.720Z,0
2018-07-09T02:19:08.859Z,0
2018-07-09T02:19:34.997Z,0
2018-07-09T02:20:01.133Z,0
2018-07-09T02:20:27.344Z,0
2018-07-09T02:20:53.433Z,0
2018-07-09T02:21:19.570Z,0
2018-07-09T02:21:45.731Z,0
2018-07-09T02:22:11.866Z,0
2018-07-09T02:22:38.048Z,0
2018-07-09T02:23:04.184Z,0
2018-07-09T02:23:30.324Z,0
2018-07-09T02:23:56.459Z,0
2018-07-09T02:24:22.599Z,0
2018-07-09T02:24:48.748Z,0
2018-07-09T02:25:14.916Z,0
2018-07-09T02:25:41.053Z,0
2018-07-09T02:26:07.191Z,0
2018-07-09T02:26:33.324Z,0
2018-07-09T02:26:59.461Z,0
2018-07-09T02:27:25.625Z,0
2018-07-09T02:27:51.758Z,0
2018-07-09T02:28:17.897Z,0
2018-07-09T02:28:44.040Z,0
2018-07-09T02:29:10.175Z,0
2018-07-09T02:29:36.314Z,0
2018-07-09T02:30:02.468Z,0
2018-07-09T02:30:28.599Z,0
2018-07-09T02:30:54.764Z,0
2018-07-09T02:31:20.902Z,0
2018-07-09T02:31:47.038Z,0
2018-07-09T02:32:13.207Z,0
2018-07-09T02:32:39.345Z,0
2018-07-09T02:33:05.505Z,0
2018-07-09T02:33:31.645Z,0
2018-07-09T02:33:57.792Z,0
2018-07-09T02:34:23.920Z,0
2018-07-09T02:34:50.108Z,0
2018-07-09T02:35:16.242Z,0
2018-07-09T02:35:42.369Z,0
2018-07-09T02:36:08.514Z,0
2018-07-09T02:36:34.675Z,0
2018-07-09T02:37:00.839Z,0
2018-07-09T02:37:27.007Z,0
2018-07-09T02:37:53.161Z,0
2018-07-09T02:38:19.325Z,0
2018-07-09T02:38:45.461Z,0
2018-07-09T02:39:11.623Z,0
2018-07-09T02:39:37.764Z,0
2018-07-09T02:40:03.940Z,0
2018-07-09T02:40:30.133Z,0
2018-07-09T02:40:56.268Z,0
2018-07-09T02:41:22.486Z,0
2018-07-09T02:41:48.642Z,0
2018-07-09T02:42:14.783Z,0
2018-07-09T02:42:40.922Z,0
2018-07-09T02:43:07.099Z,0
2018-07-09T02:43:33.239Z,0
2018-07-09T02:43:59.471Z,0
2018-07-09T02:44:25.610Z,0
2018-07-09T02:44:51.747Z,0
2018-07-09T02:45:17.881Z,0
2018-07-09T02:45:44.023Z,0
2018-07-09T02:46:10.168Z,0
2018-07-09T02:46:36.329Z,0
2018-07-09T02:47:02.489Z,0
2018-07-09T02:47:28.676Z,0
2018-07-09T02:47:54.834Z,0
2018-07-09T02:48:21.008Z,0
2018-07-09T02:48:47.163Z,0
2018-07-09T02:49:13.333Z,0
2018-07-09T02:49:39.468Z,0
2018-07-09T02:50:05.608Z,0
2018-07-09T02:50:31.747Z,0
2018-07-09T02:50:57.884Z,0
2018-07-09T02:51:24.017Z,0
2018-07-09T02:51:50.207Z,0
2018-07-09T02:52:16.349Z,0
2018-07-09T02:52:42.530Z,0
2018-07-09T02:53:08.691Z,0
2018-07-09T02:53:34.878Z,0
2018-07-09T02:54:01.020Z,0
2018-07-09T02:54:27.158Z,0
2018-07-09T02:54:53.296Z,0
2018-07-09T02:55:19.469Z,0
2018-07-09T02:55:45.607Z,0
2018-07-09T02:56:11.767Z,0
2018-07-09T02:56:37.940Z,0
2018-07-09T02:57:04.101Z,0
2018-07-09T02:57:30.276Z,0
2018-07-09T02:57:56.454Z,0
2018-07-09T02:58:22.592Z,0
2018-07-09T02:58:48.748Z,0
2018-07-09T02:59:14.935Z,0
2018-07-09T02:59:41.071Z,0
2018-07-09T03:00:07.252Z,0
2018-07-09T03:00:33.393Z,0
2018-07-09T03:00:59.619Z,0
2018-07-09T03:01:25.716Z,0
2018-07-09T03:01:51.883Z,0
2018-07-09T03:02:18.016Z,0
2018-07-09T03:02:44.156Z,0
2018-07-09T03:03:10.287Z,0
2018-07-09T03:03:36.427Z,0
2018-07-09T03:04:02.588Z,0
2018-07-09T03:04:28.727Z,0
2018-07-09T03:04:54.864Z,0
2018-07-09T03:05:21.030Z,0
2018-07-09T03:05:47.166Z,0
2018-07-09T03:06:13.399Z,0
2018-07-09T03:06:39.542Z,0
2018-07-09T03:07:05.828Z,0
2018-07-09T03:07:32.179Z,0
2018-07-09T03:07:58.376Z,0
2018-07-09T03:08:24.661Z,0
2018-07-09T03:08:50.840Z,0
2018-07-09T03:09:17.006Z,0
2018-07-09T03:09:43.211Z,0
2018-07-09T03:10:09.429Z,0
2018-07-09T03:10:35.624Z,0
2018-07-09T03:11:01.955Z,0
2018-07-09T03:11:28.252Z,5
2018-07-09T03:11:54.580Z,5
2018-07-09T03:12:20.808Z,5
2018-07-09T03:12:47.002Z,5
2018-07-09T03:13:13.168Z,5
2018-07-09T03:13:39.302Z,5
2018-07-09T03:14:05.447Z,5
2018-07-09T03:14:31.627Z,5
2018-07-09T03:14:57.769Z,5
2018-07-09T03:15:23.929Z,5
2018-07-09T03:15:50.113Z,5
2018-07-09T03:16:16.249Z,5
2018-07-09T03:16:42.456Z,5
2018-07-09T03:17:08.594Z,5
2018-07-09T03:17:34.755Z,5
2018-07-09T03:18:00.887Z,5
2018-07-09T03:18:27.049Z,5
2018-07-09T03:18:53.182Z,5
2018-07-09T03:19:19.339Z,5
2018-07-09T03:19:45.450Z,5
2018-07-09T03:20:11.640Z,5
2018-07-09T03:20:37.819Z,5
2018-07-09T03:21:03.960Z,5
2018-07-09T03:21:30.102Z,10
2018-07-09T03:21:56.262Z,10
2018-07-09T03:22:22.398Z,10
2018-07-09T03:22:48.537Z,10
2018-07-09T03:23:14.745Z,10
2018-07-09T03:23:40.877Z,10
2018-07-09T03:24:07.063Z,10
2018-07-09T03:24:33.220Z,10
2018-07-09T03:24:59.430Z,10
2018-07-09T03:25:25.575Z,10
2018-07-09T03:25:51.741Z,10
2018-07-09T03:26:17.878Z,10
2018-07-09T03:26:44.042Z,10
2018-07-09T03:27:10.209Z,10
2018-07-09T03:27:36.341Z,10
2018-07-09T03:28:02.482Z,10
2018-07-09T03:28:28.643Z,10
2018-07-09T03:28:54.807Z,10
2018-07-09T03:29:20.948Z,10
2018-07-09T03:29:47.093Z,15
2018-07-09T03:30:13.258Z,15
2018-07-09T03:30:39.413Z,15
2018-07-09T03:31:05.556Z,15
2018-07-09T03:31:31.722Z,15
2018-07-09T03:31:57.928Z,15
2018-07-09T03:32:24.111Z,15
2018-07-09T03:32:50.246Z,15
2018-07-09T03:33:16.388Z,15
2018-07-09T03:33:42.519Z,15
2018-07-09T03:34:08.660Z,15
2018-07-09T03:34:34.822Z,15
2018-07-09T03:35:00.982Z,15
2018-07-09T03:35:27.115Z,20
2018-07-09T03:35:53.250Z,20
2018-07-09T03:36:19.411Z,20
2018-07-09T03:36:45.553Z,20
2018-07-09T03:37:11.713Z,20
2018-07-09T03:37:37.872Z,20
2018-07-09T03:38:04.012Z,20
2018-07-09T03:38:30.171Z,20
2018-07-09T03:38:56.310Z,20
2018-07-09T03:39:22.475Z,20
2018-07-09T03:39:48.611Z,20
2018-07-09T03:40:14.770Z,20
2018-07-09T03:40:40.938Z,25
2018-07-09T03:41:07.103Z,25
2018-07-09T03:41:33.256Z,25
2018-07-09T03:41:59.397Z,25
2018-07-09T03:42:25.538Z,25
2018-07-09T03:42:51.677Z,25
2018-07-09T03:43:17.860Z,25
2018-07-09T03:43:44.020Z,25
2018-07-09T03:44:10.153Z,30
2018-07-09T03:44:36.292Z,30
2018-07-09T03:45:02.453Z,30
2018-07-09T03:45:28.613Z,30
2018-07-09T03:45:54.756Z,30
2018-07-09T03:46:20.892Z,30
2018-07-09T03:46:47.060Z,30
2018-07-09T03:47:13.198Z,30
2018-07-09T03:47:39.340Z,30
2018-07-09T03:48:05.485Z,30
2018-07-09T03:48:31.644Z,35
2018-07-09T03:48:57.781Z,35
2018-07-09T03:49:23.946Z,35
2018-07-09T03:49:50.080Z,35
2018-07-09T03:50:16.220Z,35
2018-07-09T03:50:42.355Z,35
2018-07-09T03:51:08.497Z,40
2018-07-09T03:51:34.635Z,40
2018-07-09T03:52:00.776Z,40
2018-07-09T03:52:26.933Z,40
2018-07-09T03:52:53.069Z,40
2018-07-09T03:53:19.235Z,45
2018-07-09T03:53:45.397Z,45
2018-07-09T03:54:11.534Z,45
2018-07-09T03:54:37.678Z,50
2018-07-09T03:55:03.837Z,50
2018-07-09T03:55:29.978Z,50
2018-07-09T03:55:56.120Z,50
2018-07-09T03:56:22.257Z,50
2018-07-09T03:56:48.393Z,50
2018-07-09T03:57:14.533Z,50
2018-07-09T03:57:40.678Z,55
2018-07-09T03:58:06.811Z,55
2018-07-09T03:58:32.966Z,55
2018-07-09T03:58:59.126Z,55
2018-07-09T03:59:25.273Z,55
2018-07-09T03:59:51.432Z,55
2018-07-09T04:00:17.605Z,55
2018-07-09T04:00:43.738Z,60
2018-07-09T04:01:09.880Z,60
2018-07-09T04:01:36.013Z,60
2018-07-09T04:02:02.154Z,60
2018-07-09T04:02:28.316Z,60
2018-07-09T04:02:54.450Z,60
2018-07-09T04:03:20.580Z,60
2018-07-09T04:03:46.722Z,65
2018-07-09T04:04:12.876Z,65
2018-07-09T04:04:39.046Z,65
2018-07-09T04:05:05.184Z,65
2018-07-09T04:05:31.326Z,65
2018-07-09T04:05:57.464Z,65
2018-07-09T04:06:23.598Z,65
2018-07-09T04:06:49.735Z,70
2018-07-09T04:07:15.875Z,70
2018-07-09T04:07:42.035Z,70
2018-07-09T04:08:08.188Z,70
2018-07-09T04:08:34.338Z,70
2018-07-09T04:09:00.463Z,70
2018-07-09T04:09:26.607Z,70
2018-07-09T04:09:52.767Z,70
2018-07-09T04:10:18.909Z,75
2018-07-09T04:10:45.049Z,75
2018-07-09T04:11:11.186Z,75
2018-07-09T04:11:37.377Z,75
2018-07-09T04:12:03.565Z,75
2018-07-09T04:12:29.673Z,75
2018-07-09T04:12:55.813Z,80
2018-07-09T04:13:21.981Z,80
2018-07-09T04:13:48.115Z,80
2018-07-09T04:14:14.249Z,80
2018-07-09T04:14:40.437Z,80
2018-07-09T04:15:06.581Z,80
2018-07-09T04:15:32.744Z,80
2018-07-09T04:15:58.879Z,85
2018-07-09T04:16:25.020Z,85
2018-07-09T04:16:51.154Z,85
2018-07-09T04:17:17.315Z,85
2018-07-09T04:17:43.457Z,85
2018-07-09T04:18:09.590Z,85
2018-07-09T04:18:35.724Z,85
2018-07-09T04:19:01.864Z,90
2018-07-09T04:19:28.007Z,90
2018-07-09T04:19:54.195Z,90
2018-07-09T04:20:20.362Z,90
2018-07-09T04:20:46.573Z,90
2018-07-09T04:21:12.702Z,90
2018-07-09T04:21:38.842Z,90
2018-07-09T04:22:04.982Z,95
2018-07-09T04:22:31.109Z,95
2018-07-09T04:22:57.254Z,95
2018-07-09T04:23:23.413Z,95
2018-07-09T04:23:49.549Z,95
2018-07-09T04:24:15.690Z,95
2018-07-09T04:24:41.855Z,100
2018-07-09T04:25:07.987Z,100
2018-07-09T04:25:34.137Z,100
2018-07-09T04:26:00.315Z,100
2018-07-09T04:26:26.521Z,100
2018-07-09T04:26:52.655Z,100
2018-07-09T04:27:18.792Z,100
2018-07-09T04:27:44.954Z,105
2018-07-09T04:28:11.118Z,105
2018-07-09T04:28:37.255Z,105
2018-07-09T04:29:03.387Z,105
2018-07-09T04:29:29.527Z,105
2018-07-09T04:29:55.666Z,105
2018-07-09T04:30:21.803Z,105
2018-07-09T04:30:47.969Z,105
2018-07-09T04:31:14.110Z,110
2018-07-09T04:31:40.278Z,110
2018-07-09T04:32:06.430Z,110
2018-07-09T04:32:32.595Z,110
2018-07-09T04:32:58.733Z,110
2018-07-09T04:33:24.874Z,110
2018-07-09T04:33:51.041Z,115
2018-07-09T04:34:17.195Z,115
2018-07-09T04:34:43.329Z,115
2018-07-09T04:35:09.467Z,115
2018-07-09T04:35:35.612Z,115
2018-07-09T04:36:01.746Z,115
2018-07-09T04:36:27.909Z,120
2018-07-09T04:36:54.072Z,120
2018-07-09T04:37:20.231Z,115
2018-07-09T04:37:46.406Z,115
2018-07-09T04:38:12.509Z,115
2018-07-09T04:38:38.652Z,115
2018-07-09T04:39:04.787Z,120
2018-07-09T04:39:30.934Z,120
2018-07-09T04:39:57.066Z,120
2018-07-09T04:40:23.204Z,120
2018-07-09T04:40:49.343Z,120
2018-07-09T04:41:15.505Z,120
2018-07-09T04:41:41.665Z,125
2018-07-09T04:42:07.809Z,125
2018-07-09T04:42:33.940Z,125
2018-07-09T04:43:00.075Z,125
2018-07-09T04:43:26.236Z,125
2018-07-09T04:43:52.367Z,130
2018-07-09T04:44:18.537Z,130
2018-07-09T04:44:44.674Z,130
2018-07-09T04:45:10.809Z,135
2018-07-09T04:45:36.958Z,140
2018-07-09T04:46:03.121Z,140
2018-07-09T04:46:29.264Z,150
2018-07-09T04:46:55.396Z,175
2018-07-09T04:47:21.564Z,225
2018-07-09T04:47:47.728Z,285
2018-07-09T04:48:13.859Z,355
2018-07-09T04:48:40.002Z,425
2018-07-09T04:49:06.139Z,480
2018-07-09T04:49:32.284Z,515
2018-07-09T04:49:58.438Z,525
2018-07-09T04:50:24.580Z,530
2018-07-09T04:50:50.714Z,530
2018-07-09T04:51:16.855Z,540
2018-07-09T04:51:42.980Z,535
2018-07-09T04:52:09.131Z,530
2018-07-09T04:52:35.267Z,530
2018-07-09T04:53:01.426Z,535
2018-07-09T04:53:27.601Z,545
2018-07-09T04:53:53.791Z,555
2018-07-09T04:54:19.926Z,565
2018-07-09T04:54:46.063Z,570
2018-07-09T04:55:12.227Z,580
2018-07-09T04:55:38.398Z,590
2018-07-09T04:56:04.577Z,595
2018-07-09T04:56:30.714Z,605
2018-07-09T04:56:56.847Z,620
2018-07-09T04:57:23.012Z,625
2018-07-09T04:57:49.149Z,630
2018-07-09T04:58:15.286Z,630
2018-07-09T04:58:41.431Z,635
2018-07-09T04:59:07.574Z,645
2018-07-09T04:59:33.705Z,650
2018-07-09T04:59:59.846Z,655
2018-07-09T05:00:25.985Z,660
2018-07-09T05:00:52.124Z,665
2018-07-09T05:01:18.270Z,670
2018-07-09T05:01:44.408Z,680
2018-07-09T05:02:10.567Z,685
2018-07-09T05:02:36.704Z,695
2018-07-09T05:03:02.842Z,700
2018-07-09T05:03:29.005Z,710
2018-07-09T05:03:55.142Z,705
2018-07-09T05:04:21.326Z,715
2018-07-09T05:04:47.448Z,720
2018-07-09T05:05:13.613Z,710
2018-07-09T05:05:39.789Z,695
2018-07-09T05:06:05.943Z,670
2018-07-09T05:06:32.085Z,635
2018-07-09T05:06:58.220Z,585
2018-07-09T05:07:24.356Z,525
2018-07-09T05:07:50.493Z,445
2018-07-09T05:08:16.630Z,360
2018-07-09T05:08:42.763Z,295
2018-07-09T05:09:08.905Z,250
2018-07-09T05:09:35.071Z,225
2018-07-09T05:10:01.213Z,220
2018-07-09T05:10:27.348Z,220
2018-07-09T05:10:53.503Z,215
2018-07-09T05:11:19.639Z,215
2018-07-09T05:11:45.776Z,215
2018-07-09T05:12:11.916Z,210
2018-07-09T05:12:38.060Z,210
2018-07-09T05:13:04.294Z,210
2018-07-09T05:13:30.447Z,210
2018-07-09T05:13:56.582Z,210
2018-07-09T05:14:22.716Z,210
2018-07-09T05:14:48.864Z,190
2018-07-09T05:15:15.037Z,185
2018-07-09T05:15:41.131Z,185
2018-07-09T05:16:07.277Z,185
2018-07-09T05:16:33.411Z,185
2018-07-09T05:16:59.547Z,185
2018-07-09T05:17:25.693Z,185
2018-07-09T05:17:51.828Z,185
2018-07-09T05:18:17.989Z,185
2018-07-09T05:18:44.132Z,185
2018-07-09T05:19:10.272Z,190
2018-07-09T05:19:36.412Z,185
2018-07-09T05:20:02.573Z,185
2018-07-09T05:20:28.715Z,190
2018-07-09T05:20:54.855Z,185
2018-07-09T05:21:20.993Z,185
2018-07-09T05:21:47.128Z,185
2018-07-09T05:22:13.266Z,185
2018-07-09T05:22:39.403Z,190
2018-07-09T05:23:05.547Z,190
2018-07-09T05:23:31.685Z,190
2018-07-09T05:23:57.846Z,190
2018-07-09T05:24:23.991Z,190
2018-07-09T05:24:50.132Z,190
2018-07-09T05:25:16.269Z,190
2018-07-09T05:25:42.407Z,190
2018-07-09T05:26:08.611Z,190
2018-07-09T05:26:34.712Z,190
2018-07-09T05:27:00.850Z,190
2018-07-09T05:27:26.993Z,190
2018-07-09T05:27:53.131Z,190
2018-07-09T05:28:19.292Z,190
2018-07-09T05:28:45.440Z,195
2018-07-09T05:29:11.566Z,195
2018-07-09T05:29:37.704Z,195
2018-07-09T05:30:03.846Z,195
2018-07-09T05:30:29.978Z,200
2018-07-09T05:30:56.117Z,200
2018-07-09T05:31:22.264Z,195
2018-07-09T05:31:48.395Z,200
2018-07-09T05:32:14.534Z,200
2018-07-09T05:32:40.669Z,205
2018-07-09T05:33:06.864Z,205
2018-07-09T05:33:32.998Z,205
2018-07-09T05:33:59.141Z,205
2018-07-09T05:34:25.305Z,205
2018-07-09T05:34:51.465Z,205
2018-07-09T05:35:17.598Z,200
2018-07-09T05:35:43.789Z,200
2018-07-09T05:36:09.927Z,200
2018-07-09T05:36:36.089Z,200
2018-07-09T05:37:02.224Z,205
2018-07-09T05:37:28.392Z,200
2018-07-09T05:37:54.547Z,200
2018-07-09T05:38:20.682Z,200
2018-07-09T05:38:46.820Z,195
2018-07-09T05:39:12.957Z,200
2018-07-09T05:39:39.091Z,200
2018-07-09T05:40:05.240Z,200
2018-07-09T05:40:31.413Z,200
2018-07-09T05:40:57.573Z,200
2018-07-09T05:41:23.735Z,200
2018-07-09T05:41:49.873Z,200
2018-07-09T05:42:16.014Z,200
2018-07-09T05:42:42.150Z,200
2018-07-09T05:43:08.315Z,200
2018-07-09T05:43:34.448Z,200
2018-07-09T05:44:00.587Z,200
2018-07-09T05:44:26.724Z,200
2018-07-09T05:44:52.866Z,200
2018-07-09T05:45:19.029Z,200
2018-07-09T05:45:45.166Z,200
2018-07-09T05:46:11.311Z,200
2018-07-09T05:46:37.456Z,200
2018-07-09T05:47:03.671Z,205
2018-07-09T05:47:29.719Z,205
2018-07-09T05:47:55.861Z,205
2018-07-09T05:48:22.016Z,205
2018-07-09T05:48:48.157Z,205
2018-07-09T05:49:14.293Z,205
2018-07-09T05:49:40.436Z,205
2018-07-09T05:50:06.595Z,205
2018-07-09T05:50:32.761Z,205
2018-07-09T05:50:58.904Z,205
2018-07-09T05:51:25.039Z,210
2018-07-09T05:51:51.171Z,210
2018-07-09T05:52:17.328Z,210
2018-07-09T05:52:43.455Z,210
2018-07-09T05:53:09.594Z,210
2018-07-09T05:53:35.754Z,210
2018-07-09T05:54:01.889Z,210
2018-07-09T05:54:28.027Z,210
2018-07-09T05:54:54.172Z,210
2018-07-09T05:55:20.332Z,210
2018-07-09T05:55:46.470Z,215
2018-07-09T05:56:12.616Z,215
2018-07-09T05:56:38.755Z,215
2018-07-09T05:57:04.900Z,215
2018-07-09T05:57:31.029Z,215
2018-07-09T05:57:57.195Z,215
2018-07-09T05:58:23.335Z,220
2018-07-09T05:58:49.500Z,220
2018-07-09T05:59:15.610Z,220
2018-07-09T05:59:41.741Z,225
2018-07-09T06:00:07.885Z,225
2018-07-09T06:00:34.019Z,230
2018-07-09T06:01:00.164Z,240
2018-07-09T06:01:26.297Z,245
2018-07-09T06:01:52.443Z,245
2018-07-09T06:02:18.597Z,245
2018-07-09T06:02:44.737Z,250
2018-07-09T06:03:10.903Z,255
2018-07-09T06:03:37.048Z,265
2018-07-09T06:04:03.187Z,265
2018-07-09T06:04:29.325Z,270
2018-07-09T06:04:55.465Z,275
2018-07-09T06:05:21.607Z,290
2018-07-09T06:05:47.740Z,305
2018-07-09T06:06:13.899Z,315
2018-07-09T06:06:40.040Z,330
2018-07-09T06:07:06.165Z,350
2018-07-09T06:07:32.305Z,355
2018-07-09T06:07:58.445Z,355
2018-07-09T06:08:24.617Z,365
2018-07-09T06:08:50.751Z,360
2018-07-09T06:09:16.939Z,360
2018-07-09T06:09:43.098Z,375
2018-07-09T06:10:09.238Z,405
2018-07-09T06:10:35.380Z,410
2018-07-09T06:11:01.552Z,400
2018-07-09T06:11:27.739Z,405
2018-07-09T06:11:53.837Z,425
2018-07-09T06:12:19.973Z,435
2018-07-09T06:12:46.123Z,445
2018-07-09T06:13:12.260Z,445
2018-07-09T06:13:38.486Z,445
2018-07-09T06:14:04.555Z,440
2018-07-09T06:14:30.693Z,435
2018-07-09T06:14:56.860Z,445
2018-07-09T06:15:23.026Z,470
2018-07-09T06:15:49.164Z,480